My Meet Scores
Amanda Garbaciak, Flipstar Gymnastics Academy - MyMeetScores.com
Top100 | Top Teams | Upcoming Meets | Completed Meets | Latest | Add Scores | Help| Support | Bookmark and Share

Amanda Garbaciak, Flipstar Gymnastics Academy
Personal Bests
LevelVault BarsBeamFloorAA
69.2259.225 9.5759.75037.075
79.5259.225 9.6509.57537.975
89.3509.375 9.5759.55037.275
Meet Scores
Date Meet Team Session Level Division Vault Bars Beam Floor AA
2019-04-26 Level 7/8 Region 5 Regionals Flipstar Gymnastics Academy 8B 8 JRC2 8.700 25 9.025 19 9.300 10T 9.500 4 36.525 15
2019-03-29 Illinois Level 7 & 8 State Meet Flipstar Gymnastics Academy 3 8 Jr D 9.350 3 9.375 11 9.000 16 9.550 6T 37.275 8
2019-03-01 2019 MEGA Spring Invite Flipstar Gymnastics Academy All 8 All Ages 9.350 1 8.800 24 9.575 2* 9.450 2T 37.175 2T
2019-02-23 Kinetic Classic 2019 Flipstar Gymnastics Academy 1 8 Younger 9.250 4 8.550 11 9.275 4 9.350 2T 36.425 5
2019-02-08 Midwest Twisters Harley Meet Womens Flipstar Gymnastics Academy O06 8 12 yrs. 8.925 3 8.450 5 9.400 2 9.550 1 36.325 1
2018-12-07 Horton Invite Flipstar Gymnastics Academy All 8 Ch 8.800 7T 9.200 8 9.375 5T 9.375 3T 36.750 3
2018-03-23 Illinois Level 7 & 8 State Competition Flipstar Gymnastics Academy 10 7 Ch D 9.525 3T 9.225 15T 9.650 2 9.575 7T 37.975 7
2018-02-23 Kinetic Classic Flipstar Gymnastics Academy 1 7 Younger 9.225 17T 9.200 22T 9.300 8T 9.400 5T 37.125 8
2018-02-16 Big Classic Flipstar Gymnastics Academy 2A 7 Junior B 9.400 1 9.050 2 9.650 2 9.400 2 37.500 2
2018-02-09 IGI Chicago Style Gymnastics Meet Flipstar Gymnastics Academy 16 7 413 Rush L7 A 9.200 17 5.150 24 9.300 3 9.325 7 32.975 24
2017-12-08 Horton Invite At IWU Shirk Center Flipstar Gymnastics Academy All 7 Ch 9.500 4 8.800 12 9.525 4 9.550 4 37.375 3
2017-11-17 SCGA Classic Flipstar Gymnastics Academy 3 7 JrA 9.225 6 8.250 7 9.575 1 9.300 4 36.350 5
2017-03-23 2017 Illinois Level 6, 7 State Championship Flipstar Gymnastics Academy 1 7 Jr B 9.000 27T 8.250 31 9.200 15 9.450 14T 35.900 28
2017-02-24 Kinetic Classic Flipstar Gymnastics Academy 1 7 All Ages 8.700 48T 8.325 42T 9.225 13 9.400 8T 35.650 29T
2017-02-17 Big Classic Flipstar Gymnastics Academy A 7 Junior A 9.075 15T 8.700 22T 9.300 5 9.350 10T 36.425 11
2017-02-10 IGI Chicago Style Gymnastics Meet Flipstar Gymnastics Academy 111S 7 Jr 9.150 14 8.800 12 9.300 3 9.500 5 36.750 7
2016-12-09 Horton Invitational Flipstar Gymnastics Academy 4 7 Younger 9.100 11 7.050 14 9.300 3 9.500 1 34.950 8
2016-04-01 2016 Illinois Level 6 & 7 State Championships Flipstar Gymnastics Academy 08 6 L6 Jr A 9.200 26 8.325 30T 9.575 2T 9.650 2 36.750 19
2016-02-20 Big Classic Flipstar Gymnastics Academy 9B 6 Junior A 9.100 9T 8.800 6 9.325 4 9.750 1 36.975 2
2016-02-12 IGI Chicago Style Gymnastics Meet Flipstar Gymnastics Academy 532 6 Jr 9.000 4 9.225 1 9.300 4 9.400 1 36.925 1
2016-01-29 Circle Of Stars Gymnastics Invitational Flipstar Gymnastics Academy 1c1 6 10 & under 9.075 4T 9.100 5T 9.350 2 9.550 2T 37.075 1
2016-01-22 King Arthur Invitational Flipstar Gymnastics Academy S4 6 Jr.A 8.800 14 8.400 14 9.050 12 9.475 5 35.725 13
2015-12-11 St. Nick Invite Flipstar Gymnastics Academy 7A 6 Child 9.225 4 7.400 14 8.750 11 9.425 3 34.800 14
2015-05-02 2015 Illinois Level 6, 7 State Championships Flipstar Gymnastics Academy 6 Youth-A 8.800 10 8.250 19 9.100 13 9.450 6 35.600 16
2015-03-05 Spring Hill Elgin Invitational Flipstar Gymnastics Academy 6A 6 CHILD 8.475 24 8.650 21 8.800 21T 9.375 13 35.300 22
2015-02-27 Elk Grove Gymnastics Invite Flipstar Gymnastics Academy 6 6 7-11yrs 8.525 25 7.950 24 8.900 19 9.125 21T 34.500 26
2015-01-23 King Arthur Invitational Flipstar Gymnastics Academy 1 6 JrA 8.300 17 7.850 17 9.000 14 9.100 13 34.250 17
Get your scores on
a t-shirt, pin, or hoodie

www.lazysuits.com